Terminal Aerodrome Forecast
Issued by NWS

Home | Current Version | Previous Version | Graphics & Text | Print | Product List | Glossary On
Versions: 1 2 3 4 5 6 7 8 9 10 11 12 13 14 15
000
FTUS43 KUNR 272100 AAB
TAFGCC
TAF AMD
KGCC 272147Z 2722/2818 15005KT P6SM BKN040
      TEMPO 2722/2802 -TSRA BKN025CB
     FM280500 22006KT P6SM SCT150=

USA.gov is the U.S. government's official web portal to all federal, state and local government web resources and services.